sensor_id;sensor_type;location;lat;lon;timestamp;P1;durP1;ratioP1;P2;durP2;ratioP2
61460;SDS011;47325;50.506;4.472;2022-10-16T00:00:50;1.80;;;1.10;;
61460;SDS011;47325;50.506;4.472;2022-10-16T00:06:33;3.10;;;1.30;;
61460;SDS011;47325;50.506;4.472;2022-10-16T00:12:16;2.60;;;1.10;;
61460;SDS011;47325;50.506;4.472;2022-10-16T00:17:59;4.10;;;1.20;;
61460;SDS011;47325;50.506;4.472;2022-10-16T00:23:42;2.10;;;1.10;;
61460;SDS011;47325;50.506;4.472;2022-10-16T00:29:26;3.60;;;1.30;;
61460;SDS011;47325;50.506;4.472;2022-10-16T00:35:09;4.80;;;1.40;;
61460;SDS011;47325;50.506;4.472;2022-10-16T00:40:52;3.80;;;1.00;;
61460;SDS011;47325;50.506;4.472;2022-10-16T00:46:38;3.00;;;1.10;;
61460;SDS011;47325;50.506;4.472;2022-10-16T00:52:22;2.60;;;1.00;;
61460;SDS011;47325;50.506;4.472;2022-10-16T00:58:07;1.90;;;1.10;;
61460;SDS011;47325;50.506;4.472;2022-10-16T01:03:50;2.10;;;1.00;;
61460;SDS011;47325;50.506;4.472;2022-10-16T01:09:34;2.30;;;1.00;;
61460;SDS011;47325;50.506;4.472;2022-10-16T01:15:22;2.70;;;1.00;;
61460;SDS011;47325;50.506;4.472;2022-10-16T01:21:08;2.70;;;1.00;;
61460;SDS011;47325;50.506;4.472;2022-10-16T01:26:59;1.50;;;1.00;;
61460;SDS011;47325;50.506;4.472;2022-10-16T01:32:45;2.40;;;1.10;;
61460;SDS011;47325;50.506;4.472;2022-10-16T01:38:33;3.00;;;0.90;;
61460;SDS011;47325;50.506;4.472;2022-10-16T01:44:18;3.20;;;1.00;;
61460;SDS011;47325;50.506;4.472;2022-10-16T01:50:04;2.60;;;1.00;;
61460;SDS011;47325;50.506;4.472;2022-10-16T01:55:47;2.70;;;1.10;;
61460;SDS011;47325;50.506;4.472;2022-10-16T02:01:33;2.30;;;1.20;;
61460;SDS011;47325;50.506;4.472;2022-10-16T02:07:18;1.40;;;0.90;;
61460;SDS011;47325;50.506;4.472;2022-10-16T02:13:02;1.70;;;0.80;;
61460;SDS011;47325;50.506;4.472;2022-10-16T02:18:46;3.60;;;1.00;;
61460;SDS011;47325;50.506;4.472;2022-10-16T02:24:32;1.90;;;1.00;;
61460;SDS011;47325;50.506;4.472;2022-10-16T02:30:19;3.10;;;1.10;;
61460;SDS011;47325;50.506;4.472;2022-10-16T02:36:04;3.10;;;1.10;;
61460;SDS011;47325;50.506;4.472;2022-10-16T02:41:47;4.10;;;1.00;;
61460;SDS011;47325;50.506;4.472;2022-10-16T02:47:31;2.30;;;1.10;;
61460;SDS011;47325;50.506;4.472;2022-10-16T02:53:14;1.80;;;1.00;;
61460;SDS011;47325;50.506;4.472;2022-10-16T02:58:57;3.30;;;1.10;;
61460;SDS011;47325;50.506;4.472;2022-10-16T03:04:40;1.70;;;0.90;;
61460;SDS011;47325;50.506;4.472;2022-10-16T03:10:23;2.60;;;1.00;;
61460;SDS011;47325;50.506;4.472;2022-10-16T03:16:07;2.40;;;1.10;;
61460;SDS011;47325;50.506;4.472;2022-10-16T03:21:50;1.70;;;0.90;;
61460;SDS011;47325;50.506;4.472;2022-10-16T03:27:34;1.80;;;0.90;;
61460;SDS011;47325;50.506;4.472;2022-10-16T03:33:17;2.20;;;0.90;;
61460;SDS011;47325;50.506;4.472;2022-10-16T03:39:00;3.20;;;1.10;;
61460;SDS011;47325;50.506;4.472;2022-10-16T03:44:43;3.10;;;1.10;;
61460;SDS011;47325;50.506;4.472;2022-10-16T03:50:27;2.70;;;1.10;;
61460;SDS011;47325;50.506;4.472;2022-10-16T03:56:10;2.30;;;1.10;;
61460;SDS011;47325;50.506;4.472;2022-10-16T04:01:53;3.50;;;1.10;;
61460;SDS011;47325;50.506;4.472;2022-10-16T04:07:36;2.50;;;1.20;;
61460;SDS011;47325;50.506;4.472;2022-10-16T04:13:19;2.70;;;1.10;;
61460;SDS011;47325;50.506;4.472;2022-10-16T04:19:02;2.70;;;1.10;;
61460;SDS011;47325;50.506;4.472;2022-10-16T04:24:46;3.90;;;1.10;;
61460;SDS011;47325;50.506;4.472;2022-10-16T04:30:29;1.90;;;1.30;;
61460;SDS011;47325;50.506;4.472;2022-10-16T04:36:12;3.30;;;1.30;;
61460;SDS011;47325;50.506;4.472;2022-10-16T04:41:56;3.50;;;1.40;;
61460;SDS011;47325;50.506;4.472;2022-10-16T04:47:39;2.00;;;1.30;;
61460;SDS011;47325;50.506;4.472;2022-10-16T04:53:22;2.40;;;1.40;;
61460;SDS011;47325;50.506;4.472;2022-10-16T04:59:05;2.40;;;1.40;;
61460;SDS011;47325;50.506;4.472;2022-10-16T05:04:49;2.60;;;1.60;;
61460;SDS011;47325;50.506;4.472;2022-10-16T05:10:32;2.60;;;1.60;;
61460;SDS011;47325;50.506;4.472;2022-10-16T05:16:15;3.20;;;1.40;;
61460;SDS011;47325;50.506;4.472;2022-10-16T05:21:58;4.90;;;2.00;;
61460;SDS011;47325;50.506;4.472;2022-10-16T05:27:42;2.50;;;1.40;;
61460;SDS011;47325;50.506;4.472;2022-10-16T05:33:25;4.80;;;1.50;;
61460;SDS011;47325;50.506;4.472;2022-10-16T05:39:09;2.30;;;1.40;;
61460;SDS011;47325;50.506;4.472;2022-10-16T05:44:52;1.90;;;1.50;;
61460;SDS011;47325;50.506;4.472;2022-10-16T05:50:35;2.70;;;1.60;;
61460;SDS011;47325;50.506;4.472;2022-10-16T05:56:20;3.10;;;1.50;;
61460;SDS011;47325;50.506;4.472;2022-10-16T06:02:04;3.00;;;1.60;;
61460;SDS011;47325;50.506;4.472;2022-10-16T06:07:47;2.70;;;1.60;;
61460;SDS011;47325;50.506;4.472;2022-10-16T06:13:30;3.00;;;1.70;;
61460;SDS011;47325;50.506;4.472;2022-10-16T06:19:13;3.20;;;1.50;;
61460;SDS011;47325;50.506;4.472;2022-10-16T06:24:57;3.90;;;1.60;;
61460;SDS011;47325;50.506;4.472;2022-10-16T06:30:40;3.00;;;1.80;;
61460;SDS011;47325;50.506;4.472;2022-10-16T06:36:23;2.90;;;1.60;;
61460;SDS011;47325;50.506;4.472;2022-10-16T06:42:07;2.90;;;1.50;;
61460;SDS011;47325;50.506;4.472;2022-10-16T06:47:50;4.00;;;1.70;;
61460;SDS011;47325;50.506;4.472;2022-10-16T06:53:34;3.10;;;1.50;;
61460;SDS011;47325;50.506;4.472;2022-10-16T06:59:38;2.90;;;1.50;;
61460;SDS011;47325;50.506;4.472;2022-10-16T07:05:26;2.10;;;1.40;;
61460;SDS011;47325;50.506;4.472;2022-10-16T07:11:10;3.20;;;1.70;;
61460;SDS011;47325;50.506;4.472;2022-10-16T07:16:53;2.50;;;1.60;;
61460;SDS011;47325;50.506;4.472;2022-10-16T07:22:36;3.30;;;1.50;;
61460;SDS011;47325;50.506;4.472;2022-10-16T07:28:19;4.20;;;1.90;;
61460;SDS011;47325;50.506;4.472;2022-10-16T07:34:03;3.00;;;1.60;;
61460;SDS011;47325;50.506;4.472;2022-10-16T07:39:46;3.30;;;1.60;;
61460;SDS011;47325;50.506;4.472;2022-10-16T07:45:30;3.00;;;1.70;;
61460;SDS011;47325;50.506;4.472;2022-10-16T07:51:13;2.90;;;1.60;;
61460;SDS011;47325;50.506;4.472;2022-10-16T07:56:57;3.10;;;1.70;;
61460;SDS011;47325;50.506;4.472;2022-10-16T08:02:42;2.70;;;1.70;;
61460;SDS011;47325;50.506;4.472;2022-10-16T08:08:25;2.50;;;1.70;;
61460;SDS011;47325;50.506;4.472;2022-10-16T08:14:08;2.40;;;1.70;;
61460;SDS011;47325;50.506;4.472;2022-10-16T08:19:52;4.00;;;1.70;;
61460;SDS011;47325;50.506;4.472;2022-10-16T08:25:35;2.50;;;1.60;;
61460;SDS011;47325;50.506;4.472;2022-10-16T08:31:20;2.40;;;1.70;;
61460;SDS011;47325;50.506;4.472;2022-10-16T08:37:03;3.80;;;1.70;;
61460;SDS011;47325;50.506;4.472;2022-10-16T08:42:50;4.70;;;1.70;;
61460;SDS011;47325;50.506;4.472;2022-10-16T08:48:35;2.90;;;1.40;;
61460;SDS011;47325;50.506;4.472;2022-10-16T08:54:26;5.90;;;1.40;;
61460;SDS011;47325;50.506;4.472;2022-10-16T09:00:13;2.40;;;1.40;;
61460;SDS011;47325;50.506;4.472;2022-10-16T09:06:00;2.80;;;1.40;;
61460;SDS011;47325;50.506;4.472;2022-10-16T09:11:48;3.70;;;1.40;;
61460;SDS011;47325;50.506;4.472;2022-10-16T09:17:42;3.10;;;1.30;;
61460;SDS011;47325;50.506;4.472;2022-10-16T09:23:28;3.80;;;1.30;;
61460;SDS011;47325;50.506;4.472;2022-10-16T09:29:13;3.20;;;1.20;;
61460;SDS011;47325;50.506;4.472;2022-10-16T09:34:56;4.40;;;1.40;;
61460;SDS011;47325;50.506;4.472;2022-10-16T09:40:40;2.60;;;1.30;;
61460;SDS011;47325;50.506;4.472;2022-10-16T09:46:26;2.50;;;1.20;;
61460;SDS011;47325;50.506;4.472;2022-10-16T09:52:14;3.50;;;1.20;;
61460;SDS011;47325;50.506;4.472;2022-10-16T09:57:57;3.10;;;1.20;;
61460;SDS011;47325;50.506;4.472;2022-10-16T10:03:41;4.50;;;1.30;;
61460;SDS011;47325;50.506;4.472;2022-10-16T10:09:25;5.60;;;1.40;;
61460;SDS011;47325;50.506;4.472;2022-10-16T10:15:10;5.30;;;1.30;;
61460;SDS011;47325;50.506;4.472;2022-10-16T10:21:01;3.50;;;1.10;;
61460;SDS011;47325;50.506;4.472;2022-10-16T10:26:48;3.20;;;1.10;;
61460;SDS011;47325;50.506;4.472;2022-10-16T10:32:35;1.90;;;0.90;;
61460;SDS011;47325;50.506;4.472;2022-10-16T10:38:30;4.10;;;1.10;;
61460;SDS011;47325;50.506;4.472;2022-10-16T10:44:16;3.20;;;1.10;;
61460;SDS011;47325;50.506;4.472;2022-10-16T10:50:06;1.70;;;1.00;;
61460;SDS011;47325;50.506;4.472;2022-10-16T10:55:54;3.80;;;1.10;;
61460;SDS011;47325;50.506;4.472;2022-10-16T11:01:44;2.10;;;1.00;;
61460;SDS011;47325;50.506;4.472;2022-10-16T11:07:32;1.10;;;0.90;;
61460;SDS011;47325;50.506;4.472;2022-10-16T11:13:26;1.70;;;1.00;;
61460;SDS011;47325;50.506;4.472;2022-10-16T11:19:14;3.10;;;1.10;;
61460;SDS011;47325;50.506;4.472;2022-10-16T11:25:02;3.60;;;1.30;;
61460;SDS011;47325;50.506;4.472;2022-10-16T11:30:49;2.80;;;1.10;;
61460;SDS011;47325;50.506;4.472;2022-10-16T11:36:36;4.50;;;1.30;;
61460;SDS011;47325;50.506;4.472;2022-10-16T11:42:22;2.10;;;1.20;;
61460;SDS011;47325;50.506;4.472;2022-10-16T11:48:12;1.50;;;0.90;;
61460;SDS011;47325;50.506;4.472;2022-10-16T11:53:59;2.00;;;1.10;;
61460;SDS011;47325;50.506;4.472;2022-10-16T11:59:45;3.00;;;1.10;;
61460;SDS011;47325;50.506;4.472;2022-10-16T12:05:33;2.30;;;1.10;;
61460;SDS011;47325;50.506;4.472;2022-10-16T12:11:31;3.50;;;1.20;;
61460;SDS011;47325;50.506;4.472;2022-10-16T12:17:27;3.20;;;1.00;;
61460;SDS011;47325;50.506;4.472;2022-10-16T12:23:20;3.00;;;1.00;;
61460;SDS011;47325;50.506;4.472;2022-10-16T12:29:13;1.70;;;1.00;;
61460;SDS011;47325;50.506;4.472;2022-10-16T12:34:57;1.90;;;1.00;;
61460;SDS011;47325;50.506;4.472;2022-10-16T12:40:41;3.20;;;1.10;;
61460;SDS011;47325;50.506;4.472;2022-10-16T12:46:33;2.30;;;1.00;;
61460;SDS011;47325;50.506;4.472;2022-10-16T12:58:13;2.20;;;0.80;;
61460;SDS011;47325;50.506;4.472;2022-10-16T13:10:00;1.70;;;0.80;;
61460;SDS011;47325;50.506;4.472;2022-10-16T13:15:49;2.10;;;1.00;;
61460;SDS011;47325;50.506;4.472;2022-10-16T13:21:38;2.00;;;0.80;;
61460;SDS011;47325;50.506;4.472;2022-10-16T13:27:29;1.80;;;0.80;;
61460;SDS011;47325;50.506;4.472;2022-10-16T13:33:17;1.50;;;0.90;;
61460;SDS011;47325;50.506;4.472;2022-10-16T13:39:10;1.90;;;0.90;;
61460;SDS011;47325;50.506;4.472;2022-10-16T13:44:55;1.90;;;0.80;;
61460;SDS011;47325;50.506;4.472;2022-10-16T13:50:38;1.20;;;0.80;;
61460;SDS011;47325;50.506;4.472;2022-10-16T13:56:22;2.50;;;0.90;;
61460;SDS011;47325;50.506;4.472;2022-10-16T14:02:08;2.20;;;1.00;;
61460;SDS011;47325;50.506;4.472;2022-10-16T14:07:56;2.70;;;1.10;;
61460;SDS011;47325;50.506;4.472;2022-10-16T14:13:43;1.50;;;0.90;;
61460;SDS011;47325;50.506;4.472;2022-10-16T14:19:27;1.80;;;0.80;;
61460;SDS011;47325;50.506;4.472;2022-10-16T14:25:26;1.30;;;0.70;;
61460;SDS011;47325;50.506;4.472;2022-10-16T14:31:22;1.90;;;0.90;;
61460;SDS011;47325;50.506;4.472;2022-10-16T14:37:13;2.10;;;0.90;;
61460;SDS011;47325;50.506;4.472;2022-10-16T14:42:57;2.20;;;0.90;;
61460;SDS011;47325;50.506;4.472;2022-10-16T14:48:43;1.50;;;0.90;;
61460;SDS011;47325;50.506;4.472;2022-10-16T14:54:29;1.60;;;0.80;;
61460;SDS011;47325;50.506;4.472;2022-10-16T15:00:14;1.00;;;0.80;;
61460;SDS011;47325;50.506;4.472;2022-10-16T15:05:58;1.80;;;0.80;;
61460;SDS011;47325;50.506;4.472;2022-10-16T15:11:42;2.40;;;0.90;;
61460;SDS011;47325;50.506;4.472;2022-10-16T15:17:26;1.20;;;1.10;;
61460;SDS011;47325;50.506;4.472;2022-10-16T15:23:14;2.30;;;1.00;;
61460;SDS011;47325;50.506;4.472;2022-10-16T15:28:58;1.80;;;1.00;;
61460;SDS011;47325;50.506;4.472;2022-10-16T15:34:42;1.70;;;1.00;;
61460;SDS011;47325;50.506;4.472;2022-10-16T15:40:25;1.60;;;1.00;;
61460;SDS011;47325;50.506;4.472;2022-10-16T15:46:11;1.60;;;1.10;;
61460;SDS011;47325;50.506;4.472;2022-10-16T15:51:54;1.60;;;1.00;;
61460;SDS011;47325;50.506;4.472;2022-10-16T15:57:37;1.60;;;1.10;;
61460;SDS011;47325;50.506;4.472;2022-10-16T16:03:21;1.30;;;1.00;;
61460;SDS011;47325;50.506;4.472;2022-10-16T16:09:04;1.60;;;1.10;;
61460;SDS011;47325;50.506;4.472;2022-10-16T16:14:47;1.50;;;0.90;;
61460;SDS011;47325;50.506;4.472;2022-10-16T16:20:31;1.00;;;0.80;;
61460;SDS011;47325;50.506;4.472;2022-10-16T16:26:15;1.30;;;0.90;;
61460;SDS011;47325;50.506;4.472;2022-10-16T16:31:58;1.90;;;1.20;;
61460;SDS011;47325;50.506;4.472;2022-10-16T16:37:42;1.20;;;1.00;;
61460;SDS011;47325;50.506;4.472;2022-10-16T16:43:26;2.50;;;1.20;;
61460;SDS011;47325;50.506;4.472;2022-10-16T16:49:10;2.40;;;1.30;;
61460;SDS011;47325;50.506;4.472;2022-10-16T16:54:54;2.10;;;1.20;;
61460;SDS011;47325;50.506;4.472;2022-10-16T17:00:37;4.10;;;1.50;;
61460;SDS011;47325;50.506;4.472;2022-10-16T17:06:42;2.40;;;1.40;;
61460;SDS011;47325;50.506;4.472;2022-10-16T17:12:26;2.30;;;1.30;;
61460;SDS011;47325;50.506;4.472;2022-10-16T17:18:09;1.70;;;1.20;;
61460;SDS011;47325;50.506;4.472;2022-10-16T17:23:54;2.80;;;1.30;;
61460;SDS011;47325;50.506;4.472;2022-10-16T17:29:37;2.40;;;1.20;;
61460;SDS011;47325;50.506;4.472;2022-10-16T17:35:20;1.60;;;1.20;;
61460;SDS011;47325;50.506;4.472;2022-10-16T17:41:13;3.30;;;1.20;;
61460;SDS011;47325;50.506;4.472;2022-10-16T17:46:56;2.60;;;1.20;;
61460;SDS011;47325;50.506;4.472;2022-10-16T17:52:40;2.00;;;1.20;;
61460;SDS011;47325;50.506;4.472;2022-10-16T17:58:23;2.30;;;1.20;;
61460;SDS011;47325;50.506;4.472;2022-10-16T18:04:07;2.10;;;1.20;;
61460;SDS011;47325;50.506;4.472;2022-10-16T18:09:51;2.70;;;1.60;;
61460;SDS011;47325;50.506;4.472;2022-10-16T18:15:51;3.40;;;1.70;;
61460;SDS011;47325;50.506;4.472;2022-10-16T18:21:39;2.80;;;1.70;;
61460;SDS011;47325;50.506;4.472;2022-10-16T18:27:24;2.70;;;1.80;;
61460;SDS011;47325;50.506;4.472;2022-10-16T18:33:08;2.70;;;1.70;;
61460;SDS011;47325;50.506;4.472;2022-10-16T18:38:52;2.80;;;1.50;;
61460;SDS011;47325;50.506;4.472;2022-10-16T18:44:35;3.60;;;2.00;;
61460;SDS011;47325;50.506;4.472;2022-10-16T18:50:19;3.10;;;1.90;;
61460;SDS011;47325;50.506;4.472;2022-10-16T18:56:02;3.00;;;2.10;;
61460;SDS011;47325;50.506;4.472;2022-10-16T19:01:47;4.30;;;2.00;;
61460;SDS011;47325;50.506;4.472;2022-10-16T19:07:31;4.30;;;2.00;;
61460;SDS011;47325;50.506;4.472;2022-10-16T19:13:14;5.20;;;2.20;;
61460;SDS011;47325;50.506;4.472;2022-10-16T19:18:58;3.30;;;2.00;;
61460;SDS011;47325;50.506;4.472;2022-10-16T19:24:42;3.90;;;2.30;;
61460;SDS011;47325;50.506;4.472;2022-10-16T19:30:25;4.40;;;2.00;;
61460;SDS011;47325;50.506;4.472;2022-10-16T19:36:10;3.90;;;2.30;;
61460;SDS011;47325;50.506;4.472;2022-10-16T19:41:54;3.90;;;2.20;;
61460;SDS011;47325;50.506;4.472;2022-10-16T19:47:37;3.70;;;2.00;;
61460;SDS011;47325;50.506;4.472;2022-10-16T19:53:20;3.20;;;2.20;;
61460;SDS011;47325;50.506;4.472;2022-10-16T19:59:04;3.80;;;2.30;;
61460;SDS011;47325;50.506;4.472;2022-10-16T20:04:48;3.90;;;2.10;;
61460;SDS011;47325;50.506;4.472;2022-10-16T20:10:31;4.00;;;2.30;;
61460;SDS011;47325;50.506;4.472;2022-10-16T20:16:15;3.20;;;2.20;;
61460;SDS011;47325;50.506;4.472;2022-10-16T20:21:59;3.30;;;2.10;;
61460;SDS011;47325;50.506;4.472;2022-10-16T20:27:42;4.40;;;2.20;;
61460;SDS011;47325;50.506;4.472;2022-10-16T20:33:26;3.70;;;2.30;;
61460;SDS011;47325;50.506;4.472;2022-10-16T20:39:09;3.70;;;2.30;;
61460;SDS011;47325;50.506;4.472;2022-10-16T20:44:52;3.30;;;2.10;;
61460;SDS011;47325;50.506;4.472;2022-10-16T20:50:36;2.90;;;2.20;;
61460;SDS011;47325;50.506;4.472;2022-10-16T20:56:20;3.20;;;2.20;;
61460;SDS011;47325;50.506;4.472;2022-10-16T21:02:04;4.20;;;2.30;;
61460;SDS011;47325;50.506;4.472;2022-10-16T21:07:55;3.50;;;2.20;;
61460;SDS011;47325;50.506;4.472;2022-10-16T21:13:38;3.60;;;2.30;;
61460;SDS011;47325;50.506;4.472;2022-10-16T21:19:22;3.70;;;2.20;;
61460;SDS011;47325;50.506;4.472;2022-10-16T21:25:06;4.70;;;2.30;;
61460;SDS011;47325;50.506;4.472;2022-10-16T21:30:49;4.20;;;2.40;;
61460;SDS011;47325;50.506;4.472;2022-10-16T21:36:33;3.90;;;2.40;;
61460;SDS011;47325;50.506;4.472;2022-10-16T21:42:17;2.90;;;2.10;;
61460;SDS011;47325;50.506;4.472;2022-10-16T21:48:01;3.80;;;2.20;;
61460;SDS011;47325;50.506;4.472;2022-10-16T21:53:44;3.00;;;2.10;;
61460;SDS011;47325;50.506;4.472;2022-10-16T21:59:28;4.80;;;2.20;;
61460;SDS011;47325;50.506;4.472;2022-10-16T22:05:11;3.20;;;2.00;;
61460;SDS011;47325;50.506;4.472;2022-10-16T22:10:56;2.50;;;2.00;;
61460;SDS011;47325;50.506;4.472;2022-10-16T22:16:42;3.30;;;2.00;;
61460;SDS011;47325;50.506;4.472;2022-10-16T22:22:26;3.10;;;2.00;;
61460;SDS011;47325;50.506;4.472;2022-10-16T22:28:10;2.80;;;2.20;;
61460;SDS011;47325;50.506;4.472;2022-10-16T22:33:57;2.70;;;2.10;;
61460;SDS011;47325;50.506;4.472;2022-10-16T22:39:40;3.00;;;2.10;;
61460;SDS011;47325;50.506;4.472;2022-10-16T22:45:24;3.30;;;2.20;;
61460;SDS011;47325;50.506;4.472;2022-10-16T22:51:07;3.90;;;2.50;;
61460;SDS011;47325;50.506;4.472;2022-10-16T22:56:55;2.70;;;2.30;;
61460;SDS011;47325;50.506;4.472;2022-10-16T23:02:38;3.60;;;2.30;;
61460;SDS011;47325;50.506;4.472;2022-10-16T23:08:21;3.40;;;2.30;;
61460;SDS011;47325;50.506;4.472;2022-10-16T23:14:04;2.90;;;2.20;;
61460;SDS011;47325;50.506;4.472;2022-10-16T23:19:47;3.10;;;2.30;;
61460;SDS011;47325;50.506;4.472;2022-10-16T23:25:32;4.50;;;2.40;;
61460;SDS011;47325;50.506;4.472;2022-10-16T23:31:15;3.00;;;2.40;;
61460;SDS011;47325;50.506;4.472;2022-10-16T23:36:58;3.70;;;2.30;;
61460;SDS011;47325;50.506;4.472;2022-10-16T23:42:41;3.70;;;2.40;;
61460;SDS011;47325;50.506;4.472;2022-10-16T23:48:25;2.80;;;2.50;;
61460;SDS011;47325;50.506;4.472;2022-10-16T23:54:08;3.30;;;2.50;;
61460;SDS011;47325;50.506;4.472;2022-10-16T23:59:51;3.60;;;2.80;;
